Time;durP1;ratioP1;P1;durP2;ratioP2;P2;SDS_P1;SDS_P2;PMS_P1;PMS_P2;Temp;Humidity;BMP_temperature;BMP_pressure;BME280_temperature;BME280_humidity;BME280_pressure;Samples;Min_cycle;Max_cycle;Signal;HPM_P1;HPM_P2
2023/01/23 00:01:12;;;;;;;26.77;13.18;;;;;;;0.72;100.00;103270.16;5052933;28;20032;-75
2023/01/23 00:03:37;;;;;;;26.13;14.05;;;;;;;0.72;100.00;103274.41;5054162;28;20088;-74
2023/01/23 00:06:09;;;;;;;29.55;14.38;;;;;;;0.71;100.00;103272.59;5054696;28;20542;-75
2023/01/23 00:08:35;;;;;;;27.55;14.10;;;;;;;0.71;100.00;103270.91;5054401;28;20029;-75
2023/01/23 00:11:05;;;;;;;26.70;13.57;;;;;;;0.70;100.00;103273.38;5054949;28;20040;-75
2023/01/23 00:13:30;;;;;;;33.53;14.52;;;;;;;0.69;100.00;103269.84;5054020;28;20419;-75
2023/01/23 00:15:55;;;;;;;25.27;12.65;;;;;;;0.70;100.00;103275.97;5053663;28;20108;-75
2023/01/23 00:18:21;;;;;;;27.33;13.10;;;;;;;0.67;100.00;103273.97;5054975;28;20048;-75
2023/01/23 00:20:46;;;;;;;28.05;13.13;;;;;;;0.67;100.00;103277.47;5057655;28;20036;-75
2023/01/23 00:23:11;;;;;;;35.25;14.30;;;;;;;0.69;100.00;103275.03;5065146;28;20938;-75
2023/01/23 00:25:37;;;;;;;34.50;13.77;;;;;;;0.67;100.00;103267.09;5053709;28;20615;-75
2023/01/23 00:28:03;;;;;;;35.22;13.45;;;;;;;0.69;100.00;103261.16;5055798;28;20025;-75
2023/01/23 00:30:28;;;;;;;26.70;13.48;;;;;;;0.72;100.00;103257.19;5062127;28;20032;-75
2023/01/23 00:32:53;;;;;;;34.45;13.50;;;;;;;0.72;100.00;103261.44;5057535;28;20091;-75
2023/01/23 00:35:19;;;;;;;31.17;12.98;;;;;;;0.72;100.00;103264.03;5051726;28;20095;-75
2023/01/23 00:37:44;;;;;;;32.97;12.57;;;;;;;0.75;100.00;103264.34;5053074;28;20028;-75
2023/01/23 00:40:10;;;;;;;26.90;12.10;;;;;;;0.76;100.00;103248.94;5060977;28;20028;-74
2023/01/23 00:42:36;;;;;;;31.13;12.40;;;;;;;0.77;100.00;103244.66;5062519;28;20048;-75
2023/01/23 00:45:01;;;;;;;25.92;12.93;;;;;;;0.75;100.00;103243.63;5052455;28;20105;-75
2023/01/23 00:47:27;;;;;;;24.48;11.85;;;;;;;0.75;100.00;103238.44;5056103;28;20021;-75
2023/01/23 00:49:57;;;;;;;27.67;13.98;;;;;;;0.80;100.00;103244.94;5053377;28;20028;-75
2023/01/23 00:52:23;;;;;;;23.65;12.23;;;;;;;0.78;100.00;103249.09;5063287;28;20022;-76
2023/01/23 00:54:48;;;;;;;25.05;13.18;;;;;;;0.77;100.00;103244.66;5053077;28;20028;-74
2023/01/23 00:57:13;;;;;;;27.35;12.80;;;;;;;0.80;100.00;103253.66;5051845;28;20025;-76
2023/01/23 00:59:39;;;;;;;25.73;12.48;;;;;;;0.82;100.00;103246.03;5069140;28;20024;-76
2023/01/23 01:02:04;;;;;;;32.40;12.52;;;;;;;0.81;100.00;103245.13;5053084;28;20023;-75
2023/01/23 01:04:30;;;;;;;22.33;11.05;;;;;;;0.84;100.00;103232.44;5065231;28;20049;-75
2023/01/23 01:06:55;;;;;;;33.22;13.07;;;;;;;0.81;100.00;103233.81;5062962;28;20111;-75
2023/01/23 01:09:20;;;;;;;22.75;11.75;;;;;;;0.80;100.00;103234.59;5061731;28;20086;-74
2023/01/23 01:11:46;;;;;;;24.42;11.90;;;;;;;0.77;100.00;103234.31;5053973;28;20541;-76
2023/01/23 01:14:14;;;;;;;31.50;12.40;;;;;;;0.74;100.00;103237.50;5054604;28;20025;-75
2023/01/23 01:16:44;;;;;;;28.00;12.48;;;;;;;0.76;100.00;103242.84;5062478;28;20452;-74
2023/01/23 01:19:09;;;;;;;26.35;11.70;;;;;;;0.73;100.00;103239.97;5056678;28;20421;-74
2023/01/23 01:21:35;;;;;;;27.27;12.65;;;;;;;0.74;100.00;103246.97;5049275;28;20113;-75
2023/01/23 01:24:00;;;;;;;31.05;12.48;;;;;;;0.71;100.00;103251.88;5056100;28;20066;-76
2023/01/23 01:26:25;;;;;;;27.55;12.90;;;;;;;0.68;100.00;103252.50;5053473;28;20489;-75
2023/01/23 01:28:51;;;;;;;24.05;11.80;;;;;;;0.67;100.00;103254.16;5059638;28;20071;-75
2023/01/23 01:31:16;;;;;;;30.50;11.50;;;;;;;0.67;100.00;103246.38;5053279;28;20478;-74
2023/01/23 01:33:42;;;;;;;26.55;13.15;;;;;;;0.63;100.00;103252.03;5051155;28;20476;-75
2023/01/23 01:36:10;;;;;;;21.20;12.70;;;;;;;0.63;100.00;103251.13;5053665;28;20479;-76
2023/01/23 01:38:35;;;;;;;25.48;11.80;;;;;;;0.62;100.00;103246.72;5052257;28;20033;-74
2023/01/23 01:41:01;;;;;;;27.65;12.65;;;;;;;0.63;100.00;103258.91;5053053;28;20032;-75
2023/01/23 01:43:27;;;;;;;29.10;12.82;;;;;;;0.63;100.00;103258.91;5052793;28;20051;-74
2023/01/23 01:46:20;;;;;;;27.48;12.27;;;;;;;0.62;100.00;103263.16;5070243;28;20032;-76
2023/01/23 01:49:06;;;;;;;29.55;12.75;;;;;;;0.61;100.00;103257.81;5045439;28;20025;-75
2023/01/23 01:51:53;;;;;;;24.38;12.02;;;;;;;0.59;100.00;103262.88;5050933;28;20032;-75
2023/01/23 01:54:42;;;;;;;33.08;12.45;;;;;;;0.59;100.00;103262.88;5060975;28;20032;-74
2023/01/23 01:57:14;;;;;;;25.52;12.10;;;;;;;0.58;100.00;103267.91;5045006;28;20040;-75
2023/01/23 01:59:44;;;;;;;26.48;10.90;;;;;;;0.61;100.00;103270.78;5054388;28;20059;-75
2023/01/23 02:02:17;;;;;;;28.38;12.57;;;;;;;0.59;100.00;103265.47;5043278;28;20099;-75
2023/01/23 02:04:47;;;;;;;21.47;11.43;;;;;;;0.61;100.00;103271.72;5052746;28;20075;-76
2023/01/23 02:07:31;;;;;;;23.50;11.90;;;;;;;0.62;100.00;103281.28;5052537;28;20294;-75
2023/01/23 02:09:56;;;;;;;20.52;11.40;;;;;;;0.59;100.00;103273.22;5055090;28;20032;-76
2023/01/23 02:12:22;;;;;;;24.83;11.68;;;;;;;0.59;100.00;103275.81;5057187;28;20036;-76
2023/01/23 02:14:47;;;;;;;29.63;12.35;;;;;;;0.59;100.00;103267.16;5048359;28;20025;-75
2023/01/23 02:17:12;;;;;;;27.55;13.25;;;;;;;0.59;100.00;103273.22;5052800;28;20032;-75
2023/01/23 02:19:50;;;;;;;34.30;12.82;;;;;;;0.60;100.00;103272.47;5052141;28;20032;-75
2023/01/23 02:22:31;;;;;;;26.95;12.95;;;;;;;0.62;100.00;103273.53;5058001;28;20021;-75
2023/01/23 02:25:06;;;;;;;28.00;12.75;;;;;;;0.62;100.00;103278.69;5051197;28;20031;-76
2023/01/23 02:27:31;;;;;;;33.58;14.05;;;;;;;0.62;100.00;103273.53;5050851;28;20765;-76
2023/01/23 02:29:57;;;;;;;29.63;13.15;;;;;;;0.62;100.00;103267.44;5063664;28;20028;-75
2023/01/23 02:32:25;;;;;;;30.38;14.38;;;;;;;0.62;100.00;103268.34;5061095;28;20027;-75
2023/01/23 02:34:55;;;;;;;34.17;13.40;;;;;;;0.63;100.00;103270.16;5051507;28;20028;-74
2023/01/23 02:37:26;;;;;;;44.13;14.60;;;;;;;0.60;100.00;103269.88;5052352;28;20508;-75
2023/01/23 02:39:52;;;;;;;27.15;13.98;;;;;;;0.61;100.00;103278.56;5052030;28;20376;-74
2023/01/23 02:42:20;;;;;;;30.42;12.75;;;;;;;0.60;100.00;103274.16;5062763;28;20017;-75
2023/01/23 02:44:45;;;;;;;29.70;12.93;;;;;;;0.59;100.00;103262.88;5062065;28;20032;-75
2023/01/23 02:47:11;;;;;;;33.35;14.20;;;;;;;0.58;100.00;103270.50;5062881;28;20075;-74
2023/01/23 02:49:41;;;;;;;28.58;13.77;;;;;;;0.57;100.00;103264.41;5052340;28;20025;-75
2023/01/23 02:52:08;;;;;;;36.35;14.27;;;;;;;0.56;100.00;103262.59;5064760;28;20119;-75
2023/01/23 02:54:34;;;;;;;24.35;12.65;;;;;;;0.57;100.00;103268.66;5051025;28;20531;-74
2023/01/23 02:56:59;;;;;;;30.10;13.27;;;;;;;0.57;100.00;103271.25;5052978;28;20032;-74
2023/01/23 03:02:09;;;;;;;34.28;14.02;;;;;;;0.56;100.00;103282.41;5058810;28;20103;-75
2023/01/23 03:04:34;;;;;;;29.02;13.98;;;;;;;0.56;100.00;103274.63;5054741;28;20049;-75
2023/01/23 03:07:00;;;;;;;33.22;12.23;;;;;;;0.56;100.00;103272.03;5056211;28;20093;-76
2023/01/23 03:09:25;;;;;;;36.50;13.05;;;;;;;0.57;100.00;103273.84;5065332;28;20420;-75
2023/01/23 03:11:51;;;;;;;24.88;12.45;;;;;;;0.57;100.00;103282.56;5054752;28;20029;-76
2023/01/23 03:14:19;;;;;;;31.20;13.48;;;;;;;0.57;100.00;103279.03;5053754;28;20020;-75
2023/01/23 03:16:49;;;;;;;34.17;13.80;;;;;;;0.57;100.00;103279.03;5053936;28;20075;-74
2023/01/23 03:19:15;;;;;;;34.88;13.88;;;;;;;0.58;100.00;103284.34;5054069;28;20060;-76
2023/01/23 03:21:40;;;;;;;39.03;14.82;;;;;;;0.58;100.00;103283.44;5056023;28;20067;-75
2023/01/23 03:24:07;;;;;;;35.72;13.43;;;;;;;0.59;100.00;103283.59;5055827;28;20372;-75
2023/01/23 03:26:33;;;;;;;40.97;14.82;;;;;;;0.62;100.00;103289.06;5060690;28;20438;-75
2023/01/23 03:31:45;;;;;;;34.17;13.23;;;;;;;0.63;100.00;103287.41;5057395;28;20099;-75
2023/01/23 03:34:10;;;;;;;34.72;13.43;;;;;;;0.65;100.00;103284.19;5064310;28;20028;-75
2023/01/23 03:36:36;;;;;;;31.63;13.80;;;;;;;0.66;100.00;103288.63;5055395;28;20087;-75
2023/01/23 03:41:51;;;;;;;29.05;14.18;;;;;;;0.67;100.00;103293.03;5071582;28;20119;-75
2023/01/23 03:44:18;;;;;;;41.72;15.05;;;;;;;0.65;100.00;103289.38;5071116;28;20021;-75
2023/01/23 03:46:44;;;;;;;38.85;14.60;;;;;;;0.66;100.00;103295.47;5054700;28;20488;-75
2023/01/23 03:49:10;;;;;;;37.65;14.57;;;;;;;0.63;100.00;103290.91;5054580;28;20444;-73
2023/01/23 03:51:35;;;;;;;37.30;13.85;;;;;;;0.66;100.00;103295.47;5055845;28;20036;-75
2023/01/23 03:54:00;;;;;;;38.30;14.60;;;;;;;0.69;100.00;103289.66;5075422;28;20506;-75
2023/01/23 03:56:26;;;;;;;42.42;14.23;;;;;;;0.71;100.00;103298.53;5055142;28;20117;-75
2023/01/23 03:58:51;;;;;;;34.38;13.77;;;;;;;0.71;100.00;103290.75;5062184;28;20032;-76
2023/01/23 04:01:17;;;;;;;27.40;13.45;;;;;;;0.75;100.00;103295.47;5056124;28;20404;-75
2023/01/23 04:03:42;;;;;;;37.72;15.20;;;;;;;0.72;100.00;103296.06;5059803;28;20461;-75
2023/01/23 04:06:08;;;;;;;42.28;16.48;;;;;;;0.76;100.00;103297.25;5047279;28;20041;-75
2023/01/23 04:08:34;;;;;;;40.33;14.98;;;;;;;0.75;100.00;103295.47;5052737;28;20369;-74
2023/01/23 04:11:00;;;;;;;35.60;13.90;;;;;;;0.76;100.00;103300.78;5054541;28;20377;-75
2023/01/23 04:13:26;;;;;;;40.33;14.55;;;;;;;0.77;100.00;103293.91;5064150;28;20025;-74
2023/01/23 04:15:51;;;;;;;36.13;15.18;;;;;;;0.78;100.00;103288.88;5056533;28;20044;-75
2023/01/23 04:18:16;;;;;;;40.28;14.48;;;;;;;0.77;100.00;103296.50;5054744;28;20075;-74
2023/01/23 04:20:42;;;;;;;30.77;14.30;;;;;;;0.76;100.00;103294.66;5054051;28;20048;-75
2023/01/23 04:23:07;;;;;;;33.58;14.60;;;;;;;0.76;100.00;103293.00;5053514;28;20508;-75
2023/01/23 04:25:32;;;;;;;33.42;15.55;;;;;;;0.75;100.00;103293.75;5054879;28;20025;-74
2023/01/23 04:27:58;;;;;;;33.72;15.55;;;;;;;0.80;100.00;103294.19;5054604;28;20041;-74
2023/01/23 04:30:23;;;;;;;37.63;13.85;;;;;;;0.79;100.00;103303.66;5054226;28;22334;-75
2023/01/23 04:32:48;;;;;;;36.97;14.45;;;;;;;0.75;100.00;103303.22;5053186;28;20432;-75
2023/01/23 04:35:14;;;;;;;33.28;13.95;;;;;;;0.83;100.00;103300.59;5053768;28;20036;-74
2023/01/23 04:37:39;;;;;;;38.88;14.63;;;;;;;0.81;100.00;103311.56;5053176;28;20093;-75
2023/01/23 04:40:05;;;;;;;32.05;13.65;;;;;;;0.81;100.00;103311.56;5053829;28;20029;-75
2023/01/23 04:42:30;;;;;;;38.08;15.45;;;;;;;0.83;100.00;103308.38;5053090;28;20450;-75
2023/01/23 04:44:55;;;;;;;33.60;13.10;;;;;;;0.84;100.00;103306.69;5053191;28;20036;-76
2023/01/23 04:47:21;;;;;;;42.17;15.50;;;;;;;0.81;100.00;103321.94;5052356;28;20061;-76
2023/01/23 04:49:46;;;;;;;35.13;14.07;;;;;;;0.78;100.00;103316.47;5060672;28;20031;-75
2023/01/23 04:52:11;;;;;;;29.30;13.55;;;;;;;0.81;100.00;103317.69;5053792;28;20060;-75
2023/01/23 04:54:37;;;;;;;31.95;15.43;;;;;;;0.79;100.00;103328.69;5054015;28;20397;-75
2023/01/23 04:57:02;;;;;;;41.08;15.65;;;;;;;0.77;100.00;103325.91;5052168;28;20025;-74
2023/01/23 04:59:27;;;;;;;39.42;15.20;;;;;;;0.80;100.00;103326.22;5051315;28;20039;-76
2023/01/23 05:01:53;;;;;;;37.65;15.88;;;;;;;0.79;100.00;103333.84;5070015;28;20054;-75
2023/01/23 05:04:18;;;;;;;32.45;14.30;;;;;;;0.79;100.00;103323.50;5062036;28;20546;-75
2023/01/23 05:06:43;;;;;;;32.28;15.18;;;;;;;0.77;100.00;103322.41;5058001;28;20381;-74
2023/01/23 05:09:09;;;;;;;31.02;14.75;;;;;;;0.74;100.00;103320.44;5053512;28;20040;-75
2023/01/23 05:11:34;;;;;;;39.67;14.05;;;;;;;0.76;100.00;103329.28;5055090;28;20040;-75
2023/01/23 05:14:00;;;;;;;40.28;15.25;;;;;;;0.78;100.00;103329.44;5067644;28;20119;-75
2023/01/23 05:16:25;;;;;;;39.08;16.20;;;;;;;0.83;100.00;103325.63;5062822;28;20039;-74
2023/01/23 05:18:50;;;;;;;29.58;13.85;;;;;;;0.79;100.00;103329.56;5059749;28;20032;-76
2023/01/23 05:21:16;;;;;;;37.35;15.45;;;;;;;0.83;100.00;103325.63;5052930;28;20021;-74
2023/01/23 05:23:41;;;;;;;38.90;14.40;;;;;;;0.83;100.00;103325.63;5052845;28;20096;-75
2023/01/23 05:26:06;;;;;;;33.35;16.30;;;;;;;0.81;100.00;103327.13;5053483;28;20029;-74
2023/01/23 05:28:32;;;;;;;39.15;15.88;;;;;;;0.81;100.00;103321.94;5052330;28;20051;-74
2023/01/23 05:30:57;;;;;;;46.95;15.57;;;;;;;0.80;100.00;103326.22;5050894;28;20469;-75
2023/01/23 05:33:22;;;;;;;39.20;14.68;;;;;;;0.81;100.00;103324.53;5049701;28;20453;-75
2023/01/23 05:35:48;;;;;;;36.45;15.43;;;;;;;0.80;100.00;103325.28;5053395;28;20032;-75
2023/01/23 05:38:13;;;;;;;35.75;15.02;;;;;;;0.80;100.00;103326.22;5056965;28;20025;-75
2023/01/23 05:40:39;;;;;;;41.13;16.15;;;;;;;0.81;100.00;103322.88;5059014;28;20024;-75
2023/01/23 05:43:05;;;;;;;44.15;15.43;;;;;;;0.89;100.00;103325.28;5062065;28;20033;-75
2023/01/23 05:45:30;;;;;;;33.95;14.90;;;;;;;0.91;100.00;103324.66;5053784;28;20063;-74
2023/01/23 05:47:56;;;;;;;39.08;15.57;;;;;;;0.91;100.00;103324.66;5056578;28;20060;-75
2023/01/23 05:50:23;;;;;;;37.60;15.80;;;;;;;0.89;100.00;103322.69;5056619;28;20050;-76
2023/01/23 05:52:49;;;;;;;41.78;16.13;;;;;;;0.88;100.00;103326.94;5059005;28;20037;-75
2023/01/23 05:55:14;;;;;;;47.97;16.23;;;;;;;0.86;100.00;103328.50;5055597;28;20116;-76
2023/01/23 05:57:40;;;;;;;39.53;15.75;;;;;;;0.87;100.00;103332.91;5046046;28;20415;-75
2023/01/23 06:00:07;;;;;;;38.53;15.68;;;;;;;0.86;100.00;103330.19;5051546;28;20091;-74
2023/01/23 06:02:33;;;;;;;40.45;14.88;;;;;;;0.88;100.00;103331.22;5048745;28;20051;-74
2023/01/23 06:04:58;;;;;;;36.45;16.33;;;;;;;0.86;100.00;103330.19;5052192;28;20500;-74
2023/01/23 06:07:24;;;;;;;41.55;14.63;;;;;;;0.86;100.00;103336.25;5051309;28;20025;-75
2023/01/23 06:09:49;;;;;;;38.30;15.85;;;;;;;0.88;100.00;103342.50;5049523;28;20100;-75
2023/01/23 06:12:15;;;;;;;41.75;14.88;;;;;;;0.89;100.00;103341.75;5052589;28;20025;-75
2023/01/23 06:14:40;;;;;;;36.30;16.00;;;;;;;0.89;100.00;103340.84;5051546;28;20028;-75
2023/01/23 06:17:06;;;;;;;41.17;17.48;;;;;;;0.89;100.00;103336.56;5052137;28;20025;-75
2023/01/23 06:19:31;;;;;;;40.50;17.17;;;;;;;0.85;100.00;103344.78;5050606;28;20028;-75
2023/01/23 06:21:57;;;;;;;39.90;17.15;;;;;;;0.88;100.00;103345.09;5052622;28;20032;-74
2023/01/23 06:24:22;;;;;;;37.17;16.67;;;;;;;0.85;100.00;103344.78;5052353;28;20063;-75
2023/01/23 06:26:48;;;;;;;42.05;16.85;;;;;;;0.84;100.00;103343.91;5052709;28;20035;-75
2023/01/23 06:29:14;;;;;;;48.40;17.92;;;;;;;0.87;100.00;103343.28;5052475;28;20025;-75
2023/01/23 06:31:39;;;;;;;36.92;15.30;;;;;;;0.89;100.00;103340.84;5051626;28;20043;-74
2023/01/23 06:34:05;;;;;;;34.88;14.90;;;;;;;0.87;100.00;103340.69;5048404;28;20066;-75
2023/01/23 06:36:31;;;;;;;35.15;15.50;;;;;;;0.88;100.00;103339.91;5050779;28;20017;-74
2023/01/23 06:38:56;;;;;;;45.78;17.60;;;;;;;0.89;100.00;103346.03;5052739;28;20388;-76
2023/01/23 06:41:23;;;;;;;42.58;16.63;;;;;;;0.86;100.00;103340.53;5058979;28;20032;-75
2023/01/23 06:43:48;;;;;;;45.45;17.20;;;;;;;0.88;100.00;103333.81;5052377;28;20067;-75
2023/01/23 06:46:14;;;;;;;45.92;17.65;;;;;;;0.91;100.00;103335.03;5047985;28;20025;-73
2023/01/23 06:48:39;;;;;;;35.22;15.77;;;;;;;0.88;100.00;103339.91;5046861;28;20024;-73
2023/01/23 06:51:05;;;;;;;39.28;16.55;;;;;;;0.88;100.00;103344.19;5051587;28;20036;-73
2023/01/23 06:53:31;;;;;;;37.40;16.35;;;;;;;0.86;100.00;103346.63;5044729;28;20048;-74
2023/01/23 06:56:05;;;;;;;36.17;15.80;;;;;;;0.88;100.00;103349.38;5054094;28;20032;-73
2023/01/23 06:58:31;;;;;;;37.78;16.23;;;;;;;0.88;100.00;103350.28;5051903;28;20032;-73
2023/01/23 07:00:57;;;;;;;45.83;14.90;;;;;;;0.88;100.00;103354.56;5050981;28;20032;-74
2023/01/23 07:03:22;;;;;;;33.90;15.73;;;;;;;0.93;100.00;103359.41;5050843;28;20045;-74
2023/01/23 07:05:48;;;;;;;36.58;15.15;;;;;;;0.96;100.00;103356.19;5049896;28;20083;-75
2023/01/23 07:08:13;;;;;;;37.28;16.75;;;;;;;0.94;100.00;103361.25;5061247;28;20039;-74
2023/01/23 07:10:39;;;;;;;37.70;16.40;;;;;;;0.96;100.00;103366.56;5053349;28;20029;-74
2023/01/23 07:13:06;;;;;;;32.58;15.05;;;;;;;0.93;100.00;103364.59;5051663;28;20021;-73
2023/01/23 07:15:31;;;;;;;30.95;14.77;;;;;;;0.94;100.00;103365.53;5052021;28;20025;-74
2023/01/23 07:17:56;;;;;;;37.88;16.08;;;;;;;0.99;100.00;103369.44;5049018;28;20105;-74
2023/01/23 07:20:26;;;;;;;36.90;15.43;;;;;;;0.94;100.00;103370.72;5044480;28;20025;-73
2023/01/23 07:22:54;;;;;;;40.28;15.80;;;;;;;0.92;100.00;103378.31;5046951;28;20025;-73
2023/01/23 07:25:21;;;;;;;39.58;17.15;;;;;;;0.90;100.00;103374.69;5032977;28;20033;-73
2023/01/23 07:27:47;;;;;;;42.30;17.20;;;;;;;0.89;100.00;103374.53;5047773;28;20083;-73
2023/01/23 07:30:13;;;;;;;39.17;16.05;;;;;;;0.89;100.00;103371.94;5042840;28;20469;-74
2023/01/23 07:32:38;;;;;;;45.75;16.50;;;;;;;0.93;100.00;103385.34;5050546;28;20068;-74
2023/01/23 07:35:04;;;;;;;37.95;16.80;;;;;;;0.93;100.00;103385.34;5046775;28;20012;-74
2023/01/23 07:37:29;;;;;;;43.70;17.20;;;;;;;0.94;100.00;103386.28;5039951;28;20496;-74
2023/01/23 07:39:55;;;;;;;34.65;15.88;;;;;;;0.93;100.00;103385.34;5043638;28;20021;-75
2023/01/23 07:42:20;;;;;;;38.63;17.15;;;;;;;0.92;100.00;103388.69;5050739;28;20353;-75
2023/01/23 07:44:45;;;;;;;45.83;17.33;;;;;;;0.92;100.00;103393.88;5045425;28;20458;-75
2023/01/23 07:47:11;;;;;;;38.95;16.08;;;;;;;0.93;100.00;103394.81;5044985;28;20028;-74
2023/01/23 07:49:36;;;;;;;40.15;17.08;;;;;;;0.87;100.00;103400.31;5050192;28;20525;-75
2023/01/23 07:52:02;;;;;;;33.03;17.20;;;;;;;0.86;100.00;103394.97;5063000;28;20067;-73
2023/01/23 07:54:28;;;;;;;39.45;18.08;;;;;;;0.89;100.00;103409.13;5051912;28;20032;-73
2023/01/23 07:56:53;;;;;;;41.35;16.80;;;;;;;0.93;100.00;103411.25;5054765;28;20029;-74
2023/01/23 07:59:18;;;;;;;33.83;16.58;;;;;;;0.94;100.00;103415.69;5054343;28;20037;-73
2023/01/23 08:01:44;;;;;;;37.88;15.70;;;;;;;0.93;100.00;103419.03;5054892;28;20357;-73
2023/01/23 08:04:09;;;;;;;33.50;15.35;;;;;;;0.92;100.00;103416.31;5052212;28;20400;-75
2023/01/23 08:06:35;;;;;;;41.25;17.63;;;;;;;0.95;100.00;103414.00;5058342;28;20202;-74
2023/01/23 08:09:00;;;;;;;43.70;18.05;;;;;;;0.96;100.00;103421.94;5053791;28;20032;-75
2023/01/23 08:11:26;;;;;;;50.75;18.85;;;;;;;0.96;100.00;103421.00;5053869;28;20428;-74
2023/01/23 08:13:52;;;;;;;37.13;17.23;;;;;;;0.98;100.00;103425.59;5054911;28;20033;-75
2023/01/23 08:16:17;;;;;;;44.15;17.33;;;;;;;0.96;100.00;103432.31;5054688;28;20100;-74
2023/01/23 08:18:42;;;;;;;36.55;17.23;;;;;;;0.97;100.00;103425.44;5054296;28;20029;-74
2023/01/23 08:21:08;;;;;;;39.58;16.88;;;;;;;0.96;100.00;103427.13;5054928;28;20028;-75
2023/01/23 08:23:34;;;;;;;40.03;18.10;;;;;;;0.97;100.00;103444.50;5054917;28;20028;-75
2023/01/23 08:26:03;;;;;;;42.75;17.00;;;;;;;1.01;100.00;103446.63;5055017;28;20043;-75
2023/01/23 08:28:28;;;;;;;37.78;15.98;;;;;;;1.03;100.00;103448.44;5054892;28;20033;-74
2023/01/23 08:30:54;;;;;;;41.38;17.63;;;;;;;1.04;100.00;103450.28;5052983;28;20385;-75
2023/01/23 08:33:20;;;;;;;39.88;16.80;;;;;;;1.05;100.00;103458.22;5056907;28;20025;-75
2023/01/23 08:35:50;;;;;;;43.72;18.35;;;;;;;1.06;100.00;103451.34;5074752;28;20064;-75
2023/01/23 08:38:17;;;;;;;41.92;16.67;;;;;;;1.07;100.00;103460.94;5074684;28;20405;-74
2023/01/23 08:40:42;;;;;;;35.72;16.95;;;;;;;1.08;100.00;103467.97;5073282;28;20024;-75
2023/01/23 08:43:09;;;;;;;42.53;16.45;;;;;;;1.09;100.00;103455.16;5060292;28;20082;-75
2023/01/23 08:45:35;;;;;;;38.30;17.92;;;;;;;1.11;100.00;103461.41;5054287;28;20028;-74
2023/01/23 08:48:01;;;;;;;35.35;17.10;;;;;;;1.12;100.00;103464.91;5059365;28;20123;-74
2023/01/23 08:50:27;;;;;;;42.63;17.80;;;;;;;1.15;100.00;103470.38;5069273;28;20028;-73
2023/01/23 08:52:53;;;;;;;49.80;18.10;;;;;;;1.18;100.00;103465.50;5050776;28;20039;-74
2023/01/23 08:55:19;;;;;;;41.25;18.58;;;;;;;1.21;100.00;103465.81;5053777;28;20056;-74
2023/01/23 08:57:44;;;;;;;42.38;18.65;;;;;;;1.29;100.00;103459.69;5056927;28;20500;-74
2023/01/23 09:00:10;;;;;;;43.83;18.85;;;;;;;1.31;100.00;103463.31;5052488;28;20116;-74
2023/01/23 09:02:35;;;;;;;47.60;18.05;;;;;;;1.35;100.00;103465.44;5056677;28;20453;-73
2023/01/23 09:05:01;;;;;;;39.72;18.42;;;;;;;1.41;100.00;103465.16;5046747;28;20040;-74
2023/01/23 09:07:26;;;;;;;37.20;18.33;;;;;;;1.41;100.00;103469.41;5047741;28;20048;-73
2023/01/23 09:09:53;;;;;;;40.47;17.83;;;;;;;1.41;100.00;103472.00;5046890;28;20107;-74
2023/01/23 09:12:20;;;;;;;36.78;17.25;;;;;;;1.47;100.00;103475.19;5050165;28;20084;-74
2023/01/23 09:14:45;;;;;;;43.40;18.40;;;;;;;1.46;100.00;103473.38;5050250;28;20052;-74
2023/01/23 09:17:10;;;;;;;33.42;17.05;;;;;;;1.45;100.00;103477.66;5040473;28;20111;-74
2023/01/23 09:19:36;;;;;;;49.03;18.15;;;;;;;1.47;100.00;103470.00;5049070;28;20024;-75
2023/01/23 09:22:01;;;;;;;37.55;15.98;;;;;;;1.47;100.00;103470.00;5054360;28;20049;-73
2023/01/23 09:24:27;;;;;;;34.10;16.60;;;;;;;1.54;100.00;103467.22;5053872;28;20029;-73
2023/01/23 09:26:52;;;;;;;44.65;18.60;;;;;;;1.61;100.00;103469.63;5050065;28;20041;-74
2023/01/23 09:29:17;;;;;;;41.03;16.50;;;;;;;1.65;100.00;103458.78;5052124;28;20070;-75
2023/01/23 09:31:43;;;;;;;33.42;17.30;;;;;;;1.68;100.00;103469.47;5052549;28;20129;-74
2023/01/23 09:34:08;;;;;;;33.88;16.10;;;;;;;1.71;100.00;103475.69;5052712;28;20033;-74
2023/01/23 09:36:34;;;;;;;36.88;16.77;;;;;;;1.77;100.00;103476.31;5050788;28;20025;-75
2023/01/23 09:38:59;;;;;;;36.70;17.17;;;;;;;1.84;100.00;103473.50;5059460;28;20031;-75
2023/01/23 09:41:27;;;;;;;36.58;18.15;;;;;;;1.90;100.00;103473.16;5059028;28;20044;-75
2023/01/23 09:44:14;;;;;;;37.65;16.30;;;;;;;1.94;100.00;103471.03;5047790;28;20032;-74
2023/01/23 09:46:39;;;;;;;31.25;16.92;;;;;;;2.02;100.00;103474.31;5045360;28;20033;-75
2023/01/23 09:49:23;;;;;;;40.70;17.42;;;;;;;2.09;100.00;103475.81;5042175;28;20020;-74
2023/01/23 09:52:06;;;;;;;37.45;16.90;;;;;;;2.11;100.00;103479.47;5049039;28;20508;-74
2023/01/23 09:54:47;;;;;;;34.83;17.25;;;;;;;2.14;100.00;103479.75;5050041;28;20024;-73
2023/01/23 09:57:28;;;;;;;35.47;17.27;;;;;;;2.08;100.00;103479.19;5052923;28;20033;-74
2023/01/23 10:00:12;;;;;;;35.92;16.98;;;;;;;2.15;100.00;103482.50;5039259;28;20116;-74
2023/01/23 10:02:42;;;;;;;33.03;16.50;;;;;;;2.19;100.00;103482.00;5052081;28;20037;-74
2023/01/23 10:05:13;;;;;;;32.40;16.60;;;;;;;2.29;100.00;103472.47;5054615;28;20041;-73
2023/01/23 10:07:45;;;;;;;35.35;16.60;;;;;;;2.28;100.00;103475.84;5029474;28;20120;-73
2023/01/23 10:10:36;;;;;;;30.77;15.00;;;;;;;2.38;100.00;103477.63;5059247;28;20033;-73
2023/01/23 10:13:13;;;;;;;34.03;15.35;;;;;;;2.35;100.00;103476.56;5066900;28;20024;-73
2023/01/23 10:16:10;;;;;;;30.45;15.93;;;;;;;2.26;100.00;103478.31;5045592;28;20150;-73
2023/01/23 10:19:00;;;;;;;31.40;15.80;;;;;;;2.24;100.00;103482.47;5039629;28;20033;-72
2023/01/23 10:21:33;;;;;;;32.15;15.27;;;;;;;2.30;100.00;103483.00;5064658;28;20025;-75
2023/01/23 10:24:22;;;;;;;33.10;15.13;;;;;;;2.37;100.00;103481.88;5063525;28;20491;-75
2023/01/23 10:26:48;;;;;;;28.00;15.15;;;;;;;2.44;100.00;103475.56;5050075;28;20049;-74
2023/01/23 10:29:36;;;;;;;43.03;16.85;;;;;;;2.49;100.00;103474.31;5050107;28;20063;-75
2023/01/23 10:32:15;;;;;;;34.40;16.42;;;;;;;2.57;100.00;103481.13;5058535;28;20032;-74
2023/01/23 10:34:48;;;;;;;25.17;13.55;;;;;;;2.73;100.00;103472.13;5050552;28;20025;-74
2023/01/23 10:37:23;;;;;;;28.48;13.50;;;;;;;2.82;100.00;103470.38;5067771;28;20032;-74
2023/01/23 10:39:52;;;;;;;29.08;15.32;;;;;;;2.82;100.00;103467.78;5056700;28;20041;-75
2023/01/23 10:42:21;;;;;;;26.65;15.10;;;;;;;2.84;100.00;103472.34;5048943;28;20024;-74
2023/01/23 10:44:47;;;;;;;31.13;14.98;;;;;;;3.02;100.00;103473.06;5067331;28;20089;-73
2023/01/23 10:47:43;;;;;;;29.25;14.27;;;;;;;3.03;100.00;103481.81;5052275;28;20338;-75
2023/01/23 10:50:09;;;;;;;27.75;14.40;;;;;;;3.12;100.00;103476.50;5043901;28;20080;-73
2023/01/23 10:52:45;;;;;;;23.00;12.77;;;;;;;3.09;100.00;103481.44;5045850;28;20033;-74
2023/01/23 10:55:23;;;;;;;32.03;14.63;;;;;;;3.23;100.00;103486.19;5046479;28;20028;-74
2023/01/23 10:57:53;;;;;;;27.85;13.57;;;;;;;3.05;100.00;103485.44;5055491;28;20027;-75
2023/01/23 11:00:38;;;;;;;25.15;12.75;;;;;;;3.16;100.00;103478.59;5053633;28;20075;-75
2023/01/23 11:03:19;;;;;;;26.67;13.65;;;;;;;3.22;100.00;103484.38;5062709;28;20020;-75
2023/01/23 11:05:50;;;;;;;21.90;11.95;;;;;;;3.29;100.00;103476.31;5049709;28;20035;-75
2023/01/23 11:08:32;;;;;;;20.98;12.45;;;;;;;3.27;100.00;103484.75;5059404;28;20077;-76
2023/01/23 11:11:21;;;;;;;22.23;11.93;;;;;;;3.52;100.00;103477.44;5052927;28;20021;-75
2023/01/23 11:13:49;;;;;;;24.50;11.57;;;;;;;3.51;100.00;103483.44;5050173;28;20372;-75
2023/01/23 11:16:19;;;;;;;20.13;12.73;;;;;;;3.58;100.00;103490.09;5053831;28;20021;-72
2023/01/23 11:18:54;;;;;;;24.30;11.70;;;;;;;3.76;100.00;103490.78;5050680;28;20040;-73
2023/01/23 11:21:26;;;;;;;26.98;13.18;;;;;;;3.53;100.00;103487.09;5049639;28;20036;-73